Carlton, Oregon
Current Conditions -  °F | °C
As of 11:53 PM on Wednesday 24 Dec 2014 (Local Time) from KMMV Reporting Station
Broken Clouds Broken Clouds  
Wind Chill: 38°   Ceiling: 9000
Heat Index: 41°   Visibility: 10mi
Dew Point: 38°   Wind: 5mph
Humidity: 89%   Direction: 250°WSW
Pressure: 30.13"   Gusts: NA
Location:  45.29°N, 123.18°W
Report Text: KMMV 250753Z AUTO 25004KT 10SM FEW065 SCT075 BKN090 05/03 A3013 RMK AO2 SLP202 T00500033 401000044
Loading
Personal Weather Stations






























Interactive Weather Map New forecast layout! Learn more

10-Day Weather Forecast

Advertisements
Track Severe Weather on mobile